ENMS/MJF METAR and TAF weather

Enter ICAO airport designator
Station Type Date Time Source
ENMS METAR 2019/12/11 15:20 UTC NOAA

ENMS 111520Z VRB04KT 9999 VCSH FEW020 SCT030 04/00 Q0985 RMK WIND 412FT VRB03KT


Station Type Date Time Source
ENMS Decoded METAR 2019/12/11 15:20 UTC NOAA

Mosjoen Kjaerstad, Norway (ENMS) 65-48N 013-08E
Dec 11, 2019 - 10:20 AM EST / 2019.12.11 1520 UTC
Wind: Variable at 5 MPH (4 KT):0
Visibility: greater than 7 mile(s):0
Sky conditions: partly cloudy
Weather: showers in the vicinity
Temperature: 39 F (4 C)
Dew Point: 32 F (0 C)
Relative Humidity: 75%
Pressure (altimeter): 29.09 in. Hg (0985 hPa)
ob: ENMS 111520Z VRB04KT 9999 VCSH FEW020 SCT030 04/00 Q0985 RMK WIND 412FT VRB03KT
cycle: 15

Station Type Date Time Source
ENMS TAF UTC NOAA

Error!

Example: see airport list